Time;durP1;ratioP1;P1;durP2;ratioP2;P2;SDS_P1;SDS_P2;PMS_P1;PMS_P2;Temp;Humidity;BMP_temperature;BMP_pressure;BME280_temperature;BME280_humidity;BME280_pressure;Samples;Min_cycle;Max_cycle;Signal;HPM_P1;HPM_P2
2022/04/18 00:01:37;;;;;;;3.38;2.60;;;6.00;44.80;;;1.65;66.32;95626.94;5010874;28;20026;-51
2022/04/18 00:04:03;;;;;;;4.63;3.35;;;5.90;45.00;;;1.57;66.41;95620.13;5026241;28;20069;-54
2022/04/18 00:06:35;;;;;;;3.38;2.50;;;5.90;45.00;;;1.50;66.81;95624.56;5013577;28;20135;-50
2022/04/18 00:09:04;;;;;;;2.77;2.00;;;5.80;45.20;;;1.40;66.66;95622.38;5023346;28;20049;-51
2022/04/18 00:11:30;;;;;;;3.65;2.70;;;5.70;45.20;;;1.38;67.65;95609.47;5016638;28;20040;-55
2022/04/18 00:13:59;;;;;;;11.25;2.65;;;5.70;45.40;;;1.33;67.56;95608.47;5016674;28;20489;-55
2022/04/18 00:16:25;;;;;;;4.55;2.60;;;5.70;45.70;;;1.37;67.18;95607.03;5016457;28;20040;-55
2022/04/18 00:18:54;;;;;;;4.70;2.33;;;5.60;45.90;;;1.36;66.51;95605.41;5034053;28;20113;-54
2022/04/18 00:21:23;;;;;;;4.43;2.50;;;5.60;46.00;;;1.50;66.76;95603.56;5033595;28;20030;-55
2022/04/18 00:23:52;;;;;;;2.90;2.30;;;5.60;46.30;;;1.45;66.69;95611.25;5033997;28;20455;-55
2022/04/18 00:26:21;;;;;;;4.35;2.95;;;5.60;46.40;;;1.38;67.87;95606.84;5033731;28;20084;-52
2022/04/18 00:28:49;;;;;;;4.07;2.78;;;5.60;46.50;;;1.22;68.50;95602.00;5033926;28;20032;-53
2022/04/18 00:31:15;;;;;;;3.55;2.60;;;5.50;46.80;;;1.17;68.25;95604.47;5033528;28;20025;-52
2022/04/18 00:33:41;;;;;;;3.50;2.92;;;5.50;47.00;;;1.13;68.37;95592.75;5016393;28;20036;-51
2022/04/18 00:36:06;;;;;;;4.95;3.10;;;5.50;47.40;;;1.16;67.99;95587.09;5033880;28;20131;-53
2022/04/18 00:38:38;;;;;;;3.33;2.60;;;5.50;47.80;;;1.27;67.69;95570.72;5049299;28;20099;-54
2022/04/18 00:41:05;;;;;;;4.20;2.00;;;5.50;48.70;;;1.55;67.06;95569.63;5033999;28;20554;-50
2022/04/18 00:43:42;;;;;;;2.63;1.90;;;5.50;49.00;;;1.82;65.12;95568.50;5033471;28;20294;-51
2022/04/18 00:46:09;;;;;;;3.90;2.05;;;5.60;49.30;;;2.07;64.11;95560.66;5016065;28;20034;-56
2022/04/18 00:48:38;;;;;;;2.72;1.90;;;5.70;49.70;;;2.17;64.34;95552.31;5049257;28;20527;-53
2022/04/18 00:51:11;;;;;;;3.30;2.10;;;5.80;49.50;;;2.20;63.27;95548.47;5033363;28;20029;-51
2022/04/18 00:53:43;;;;;;;3.08;2.20;;;5.90;49.40;;;2.20;63.43;95546.63;5016171;28;20449;-54
2022/04/18 00:56:17;;;;;;;5.03;2.40;;;6.00;49.00;;;2.18;64.13;95553.91;5048907;28;20029;-51
2022/04/18 00:58:46;;;;;;;3.47;2.30;;;6.10;48.80;;;2.09;64.43;95550.72;4999448;28;20065;-53
2022/04/18 01:01:12;;;;;;;3.42;2.20;;;6.10;48.40;;;1.98;64.94;95548.81;5033060;28;20392;-54
2022/04/18 01:03:44;;;;;;;2.28;2.03;;;6.10;48.10;;;1.83;65.26;95540.41;5015731;28;20091;-52
2022/04/18 01:06:14;;;;;;;3.50;2.63;;;6.10;47.90;;;1.79;65.74;95547.09;5032165;28;20030;-52
2022/04/18 01:08:42;;;;;;;3.20;2.03;;;6.00;47.80;;;1.79;65.12;95539.22;5033097;28;20412;-54
2022/04/18 01:11:09;;;;;;;3.30;2.08;;;6.00;47.90;;;1.88;64.36;95542.38;5024484;23;20078;-53
2022/04/18 01:13:50;;;;;;;5.28;2.20;;;6.00;48.00;;;1.96;64.69;95534.25;5013463;28;20547;-52
2022/04/18 01:16:16;;;;;;;4.82;2.30;;;6.00;48.30;;;2.03;64.07;95524.50;5009877;28;20125;-53
2022/04/18 01:18:49;;;;;;;5.03;1.92;;;6.00;48.20;;;2.18;63.52;95521.59;5005415;28;20048;-53
2022/04/18 01:21:24;;;;;;;3.47;1.90;;;6.10;48.40;;;2.28;63.47;95516.66;5028377;28;20037;-50
2022/04/18 01:23:50;;;;;;;7.20;2.10;;;6.10;48.70;;;2.44;62.55;95513.47;5033950;28;20038;-53
2022/04/18 01:29:03;;;;;;;3.17;2.22;;;6.30;49.00;;;2.52;62.71;95520.31;5030356;28;20040;-55
2022/04/18 01:31:32;;;;;;;5.22;2.30;;;6.30;48.70;;;2.47;62.91;95512.25;5033816;28;20128;-52
2022/04/18 01:33:59;;;;;;;4.70;2.20;;;6.40;48.60;;;2.39;62.91;95502.03;5032523;28;20031;-52
2022/04/18 01:36:28;;;;;;;2.58;2.28;;;6.40;48.50;;;2.42;63.28;95501.59;5032508;28;20508;-52
2022/04/18 01:39:00;;;;;;;2.83;2.08;;;6.40;48.50;;;2.38;63.70;95506.44;5032449;28;20029;-52
2022/04/18 01:41:33;;;;;;;4.43;2.55;;;6.40;49.00;;;2.35;63.58;95500.81;5032325;28;20026;-51
2022/04/18 01:44:04;;;;;;;3.40;2.22;;;6.40;48.20;;;2.26;63.74;95505.56;5030947;28;20492;-51
2022/04/18 01:46:30;;;;;;;6.03;2.30;;;6.40;48.20;;;2.16;64.29;95499.97;5027984;28;20175;-49
2022/04/18 01:48:56;;;;;;;2.88;2.13;;;6.30;48.10;;;2.17;64.09;95497.13;5032279;28;20088;-51
2022/04/18 01:51:27;;;;;;;5.45;2.25;;;6.30;48.20;;;2.11;64.17;95497.97;5033281;28;20025;-49
2022/04/18 01:53:58;;;;;;;3.90;2.35;;;6.30;48.90;;;2.15;64.28;95499.16;5033338;28;20049;-53
2022/04/18 01:56:33;;;;;;;3.25;1.80;;;6.30;48.40;;;2.13;64.34;95495.97;5032200;28;20045;-49
2022/04/18 01:59:02;;;;;;;5.10;2.50;;;6.30;48.40;;;2.10;64.59;95496.38;5031998;28;20044;-52
2022/04/18 02:01:28;;;;;;;3.47;2.30;;;6.20;48.40;;;2.06;64.57;95495.97;5031850;28;20044;-52
2022/04/18 02:03:59;;;;;;;3.28;2.22;;;6.20;48.30;;;2.01;64.26;95498.47;5033205;28;20021;-54
2022/04/18 02:06:25;;;;;;;3.97;2.55;;;6.20;48.20;;;1.93;65.41;95490.81;5032944;28;20483;-55
2022/04/18 02:08:57;;;;;;;4.18;2.40;;;6.10;48.10;;;1.88;65.22;95490.66;5033104;28;20038;-49
2022/04/18 02:11:39;;;;;;;3.15;2.22;;;6.10;48.30;;;1.88;65.02;95487.22;5024525;28;20038;-51
2022/04/18 02:14:04;;;;;;;3.28;2.17;;;6.10;48.50;;;1.90;65.27;95485.19;5022563;28;20411;-52
2022/04/18 02:16:30;;;;;;;9.05;2.97;;;6.10;48.60;;;1.92;64.88;95493.69;5031659;28;20026;-49
2022/04/18 02:19:05;;;;;;;3.00;2.40;;;6.00;48.70;;;1.87;65.16;95483.00;5022686;28;20046;-53
2022/04/18 02:21:31;;;;;;;4.07;2.35;;;6.00;48.90;;;1.88;65.18;95500.34;5031541;28;20051;-52
2022/04/18 02:23:57;;;;;;;2.47;1.95;;;6.10;48.80;;;1.86;65.21;95490.06;5032798;28;20108;-50
2022/04/18 02:26:23;;;;;;;3.55;2.40;;;6.00;48.80;;;1.83;65.33;95493.13;5032731;28;20029;-54
2022/04/18 02:28:48;;;;;;;4.50;2.60;;;6.00;48.80;;;1.80;65.43;95494.34;5031745;28;20258;-49
2022/04/18 02:31:17;;;;;;;4.68;2.60;;;6.00;48.90;;;1.81;65.89;95487.25;5031395;28;20037;-49
2022/04/18 02:33:45;;;;;;;3.28;2.50;;;6.00;49.10;;;1.77;66.39;95480.81;5032696;28;20557;-52
2022/04/18 02:36:11;;;;;;;5.05;2.83;;;6.00;49.10;;;1.72;66.32;95480.66;5032605;28;20095;-50
2022/04/18 02:38:42;;;;;;;6.50;3.03;;;6.00;49.30;;;1.65;67.07;95478.06;5031275;28;20029;-51
2022/04/18 02:41:08;;;;;;;4.63;2.53;;;6.00;49.50;;;1.65;66.83;95483.31;5032546;28;20056;-52
2022/04/18 02:43:34;;;;;;;3.70;2.50;;;5.90;49.50;;;1.60;66.99;95481.34;5032504;28;20029;-50
2022/04/18 02:45:59;;;;;;;3.97;2.10;;;5.90;49.60;;;1.61;66.70;95482.13;5032386;28;20484;-52
2022/04/18 02:48:29;;;;;;;3.17;2.17;;;5.90;49.80;;;1.61;66.82;95480.31;5032448;28;20034;-53
2022/04/18 02:50:58;;;;;;;3.83;2.60;;;5.80;49.90;;;1.57;67.26;95481.75;5032420;28;20021;-49
2022/04/18 02:53:26;;;;;;;5.53;3.10;;;5.80;50.20;;;1.54;66.57;95476.91;5032396;28;20025;-50
2022/04/18 02:55:55;;;;;;;5.45;3.10;;;5.80;50.20;;;1.50;67.08;95467.84;5032433;28;20443;-54
2022/04/18 02:58:23;;;;;;;4.03;2.38;;;5.80;50.30;;;1.49;66.89;95475.94;5032773;28;20035;-53
2022/04/18 03:00:54;;;;;;;4.05;2.40;;;5.80;50.40;;;1.51;66.83;95472.09;5031442;28;20033;-51
2022/04/18 03:03:26;;;;;;;5.03;2.00;;;5.80;50.60;;;1.54;66.85;95465.63;5031193;28;20487;-54
2022/04/18 03:05:52;;;;;;;4.32;2.65;;;5.80;50.60;;;1.54;66.91;95465.63;5032279;28;20033;-49
2022/04/18 03:08:21;;;;;;;3.20;2.42;;;5.80;50.80;;;1.55;66.87;95475.09;5032503;28;20037;-51
2022/04/18 03:11:05;;;;;;;4.00;2.55;;;5.80;50.90;;;1.56;67.15;95471.44;5031340;28;20573;-56
2022/04/18 03:13:36;;;;;;;2.95;2.25;;;5.80;50.80;;;1.52;67.46;95472.88;5014344;28;20056;-52
2022/04/18 03:16:05;;;;;;;2.63;2.15;;;5.80;50.80;;;1.47;67.85;95472.72;5032359;28;20036;-52
2022/04/18 03:18:31;;;;;;;3.88;2.08;;;5.70;50.80;;;1.43;67.75;95474.16;5032109;28;20033;-52
2022/04/18 03:20:57;;;;;;;5.70;2.80;;;5.70;50.80;;;1.27;67.59;95455.25;5030855;28;20500;-51
2022/04/18 03:23:32;;;;;;;5.03;2.42;;;5.70;50.80;;;1.35;67.76;95472.59;5031931;28;20483;-55
2022/04/18 03:25:58;;;;;;;3.83;2.75;;;5.70;50.80;;;1.31;67.42;95466.13;5032178;28;20044;-53
2022/04/18 03:28:25;;;;;;;5.53;2.72;;;5.60;50.50;;;1.21;68.73;95476.28;5032030;28;20025;-50
2022/04/18 03:30:52;;;;;;;3.47;2.42;;;5.60;50.40;;;1.12;67.96;95481.75;5032037;28;20025;-54
2022/04/18 03:33:24;;;;;;;4.07;2.75;;;5.50;50.40;;;1.02;68.83;95489.25;5047148;28;20431;-53
2022/04/18 03:41:30;;;;;;;3.63;2.70;;;5.30;50.30;;;0.72;70.07;95482.88;5034263;28;20571;-55
2022/04/18 03:43:56;;;;;;;4.53;2.70;;;5.20;50.30;;;0.72;69.88;95477.63;5035923;28;20064;-54
2022/04/18 03:46:24;;;;;;;3.60;2.50;;;5.10;50.40;;;0.68;70.51;95479.84;5035462;28;20053;-52
2022/04/18 03:48:50;;;;;;;3.42;2.33;;;5.10;50.50;;;0.66;70.22;95487.13;5035690;28;20029;-55
2022/04/18 03:51:16;;;;;;;4.85;2.88;;;5.10;50.50;;;0.62;70.40;95484.09;5035700;28;20040;-53
2022/04/18 03:53:54;;;;;;;5.60;2.75;;;5.00;50.60;;;0.56;71.33;95481.50;5035749;28;20096;-55
2022/04/18 03:56:29;;;;;;;3.22;2.33;;;5.00;50.90;;;0.51;71.32;95482.13;5035629;28;20025;-52
2022/04/18 03:59:06;;;;;;;4.72;2.63;;;4.90;50.90;;;0.47;71.21;95483.53;5035486;28;20475;-53
2022/04/18 04:01:35;;;;;;;5.05;3.10;;;4.90;51.00;;;0.38;71.31;95477.69;5035207;28;20039;-53
2022/04/18 04:04:00;;;;;;;5.13;3.08;;;4.80;50.90;;;0.33;71.20;95479.31;5034107;28;20025;-54
2022/04/18 04:06:32;;;;;;;4.95;2.78;;;4.80;50.90;;;0.28;72.47;95481.72;5034035;28;20027;-52
2022/04/18 04:09:01;;;;;;;4.43;3.03;;;4.70;50.90;;;0.26;73.00;95483.75;5035264;28;20065;-52
2022/04/18 04:11:30;;;;;;;4.03;2.83;;;4.70;51.10;;;0.25;72.76;95487.34;5032635;28;20436;-51
2022/04/18 04:13:59;;;;;;;4.85;3.10;;;4.60;51.20;;;0.21;72.76;95482.53;5020281;28;20025;-54
2022/04/18 04:16:28;;;;;;;5.50;3.35;;;4.60;51.40;;;0.20;73.06;95486.16;5035159;28;20037;-54
2022/04/18 04:18:56;;;;;;;5.47;3.17;;;4.60;51.40;;;0.17;72.51;95483.13;5033771;28;20033;-52
2022/04/18 04:21:25;;;;;;;6.10;2.83;;;4.50;51.40;;;0.15;72.64;95483.31;5033827;28;20029;-55
2022/04/18 04:23:54;;;;;;;4.10;3.10;;;4.50;51.70;;;0.14;72.53;95480.94;5034800;28;20373;-53
2022/04/18 04:26:19;;;;;;;4.28;3.00;;;4.50;51.60;;;0.09;72.37;95480.72;5033569;28;20068;-52
2022/04/18 04:28:45;;;;;;;6.20;3.03;;;4.40;51.60;;;0.05;72.46;95487.38;5033660;28;20022;-54
2022/04/18 04:31:14;;;;;;;5.07;3.10;;;4.50;51.60;;;-0.01;72.90;95499.44;5034920;28;20396;-51
2022/04/18 04:33:43;;;;;;;4.63;3.00;;;4.50;51.80;;;-0.01;73.44;95486.34;5033543;28;20025;-55
2022/04/18 04:36:08;;;;;;;6.10;3.75;;;4.40;51.70;;;-0.03;73.75;95491.81;5034714;28;20037;-53
2022/04/18 04:38:34;;;;;;;7.13;2.90;;;4.40;51.80;;;-0.05;73.37;95493.00;5034742;28;20159;-52
2022/04/18 04:41:03;;;;;;;4.32;3.17;;;4.40;51.80;;;-0.12;73.49;95487.75;5034551;28;20108;-54
2022/04/18 04:43:29;;;;;;;5.45;3.30;;;4.40;51.90;;;-0.17;74.00;95490.16;5033575;28;20037;-54
2022/04/18 04:45:56;;;;;;;5.22;3.03;;;4.40;51.80;;;-0.24;73.99;95481.50;5033315;28;20123;-55
2022/04/18 04:48:23;;;;;;;4.93;3.22;;;4.30;51.80;;;-0.28;74.53;95486.34;5033680;28;20033;-54
2022/04/18 04:50:58;;;;;;;3.92;3.10;;;4.30;52.00;;;-0.30;74.55;95490.94;5033094;28;20036;-55
2022/04/18 04:53:24;;;;;;;5.32;3.33;;;4.20;52.00;;;-0.30;74.47;95482.28;5033590;28;20033;-51
2022/04/18 04:55:49;;;;;;;4.20;3.10;;;4.20;52.00;;;-0.29;75.08;95476.84;5033239;28;20029;-53
2022/04/18 04:58:18;;;;;;;6.53;3.47;;;4.30;52.10;;;-0.19;75.96;95493.97;5033198;28;20272;-54
2022/04/18 05:00:44;;;;;;;3.30;2.92;;;4.30;52.30;;;-0.14;75.74;95479.28;5034217;28;20097;-54
2022/04/18 05:03:10;;;;;;;4.78;3.22;;;4.40;52.30;;;0.02;75.12;95485.16;5034190;28;20124;-51
2022/04/18 05:05:39;;;;;;;4.05;3.13;;;4.40;52.30;;;0.31;75.56;95486.56;5034051;28;20514;-55
2022/04/18 05:08:08;;;;;;;4.70;3.15;;;4.50;52.30;;;0.61;75.17;95489.56;5034224;28;20109;-49
2022/04/18 05:10:43;;;;;;;4.80;3.13;;;4.60;52.40;;;0.91;73.42;95497.78;5049209;28;20037;-52
2022/04/18 05:13:11;;;;;;;4.70;3.17;;;4.80;52.50;;;1.17;71.90;95491.63;5016345;28;20026;-53
2022/04/18 05:15:40;;;;;;;4.00;3.15;;;4.90;52.40;;;1.43;71.42;95495.16;5033024;28;20025;-54
2022/04/18 05:18:05;;;;;;;7.53;3.38;;;5.10;52.40;;;1.66;70.16;95497.25;5034014;28;20108;-55
2022/04/18 05:20:31;;;;;;;3.88;2.80;;;5.30;52.30;;;1.90;69.31;95495.69;5033769;28;20137;-56
2022/04/18 05:22:57;;;;;;;5.70;2.50;;;5.50;52.10;;;2.15;67.81;95503.63;5033858;28;20036;-52
2022/04/18 05:25:32;;;;;;;3.63;2.50;;;5.80;52.00;;;2.46;67.26;95495.69;5032553;28;20120;-55
2022/04/18 05:27:58;;;;;;;6.10;3.10;;;6.00;51.70;;;2.72;66.77;95504.34;5032576;28;20388;-55
2022/04/18 05:30:24;;;;;;;5.38;3.28;;;6.30;51.50;;;2.91;66.79;95505.16;5026701;28;20030;-51
2022/04/18 05:32:53;;;;;;;4.32;2.80;;;6.60;51.40;;;3.11;66.52;95507.63;5031986;28;20481;-54
2022/04/18 05:35:22;;;;;;;4.25;2.72;;;6.90;51.20;;;3.36;64.57;95513.59;5031898;28;20029;-52
2022/04/18 05:37:53;;;;;;;4.53;2.35;;;7.30;51.00;;;3.69;63.11;95515.00;5031484;28;20064;-50
2022/04/18 05:40:19;;;;;;;3.40;2.50;;;7.60;50.70;;;4.02;61.97;95513.75;5026071;28;20037;-52
2022/04/18 05:42:45;;;;;;;4.72;2.75;;;8.00;50.30;;;4.25;59.99;95519.09;5032591;28;20105;-55
2022/04/18 05:45:10;;;;;;;2.97;2.33;;;8.30;49.90;;;4.42;59.78;95521.88;5032565;28;20025;-53
2022/04/18 05:47:39;;;;;;;3.25;2.47;;;8.60;49.50;;;4.64;58.61;95516.88;5028702;28;20103;-53
2022/04/18 05:50:06;;;;;;;3.60;2.05;;;9.00;49.00;;;4.92;58.36;95510.06;4969254;28;20042;-54
2022/04/18 05:52:34;;;;;;;3.22;2.10;;;9.30;48.70;;;5.23;57.22;95511.53;5018384;28;20017;-55
2022/04/18 05:55:00;;;;;;;5.10;2.58;;;9.70;48.30;;;5.56;56.89;95511.69;5031146;28;20488;-52
2022/04/18 05:57:26;;;;;;;2.60;2.20;;;10.10;48.00;;;5.84;56.08;95498.75;5031047;28;20025;-50
2022/04/18 05:59:52;;;;;;;5.85;2.67;;;10.40;47.60;;;6.10;55.21;95497.38;5031992;28;20025;-52
2022/04/18 06:02:18;;;;;;;2.70;2.15;;;10.80;47.10;;;6.30;53.59;95505.69;5031143;28;20022;-53
2022/04/18 06:04:44;;;;;;;2.78;2.30;;;11.10;46.50;;;6.37;53.05;95506.31;5025006;28;20025;-53
2022/04/18 06:07:09;;;;;;;2.90;2.33;;;11.40;46.00;;;6.54;53.31;95503.66;5029151;28;20030;-52
2022/04/18 06:09:35;;;;;;;3.45;2.30;;;11.70;45.50;;;6.73;52.13;95494.44;5023434;28;20034;-55
2022/04/18 06:12:01;;;;;;;4.50;2.50;;;12.00;45.10;;;7.12;51.92;95502.41;5013976;28;20037;-50
2022/04/18 06:14:27;;;;;;;2.60;1.75;;;12.20;44.80;;;7.35;51.04;95509.34;5027732;28;20038;-54
2022/04/18 06:16:53;;;;;;;2.53;2.08;;;12.50;44.40;;;7.69;50.26;95508.41;5032249;28;20440;-50
2022/04/18 06:19:19;;;;;;;2.80;2.17;;;12.80;44.00;;;7.94;49.57;95507.91;5014669;28;20038;-50
2022/04/18 06:21:46;;;;;;;3.95;2.15;;;13.10;43.70;;;8.05;48.82;95506.94;5013169;28;20029;-53
2022/04/18 06:24:18;;;;;;;2.92;2.10;;;13.30;43.10;;;8.16;48.64;95507.84;5014337;28;20044;-54
2022/04/18 06:26:46;;;;;;;3.53;2.00;;;13.50;42.50;;;8.43;47.97;95503.38;5031760;28;20030;-56
2022/04/18 06:29:15;;;;;;;4.15;2.25;;;13.80;42.20;;;8.66;47.84;95504.88;5031786;28;20291;-52
2022/04/18 06:31:53;;;;;;;3.05;2.10;;;14.10;41.80;;;8.92;47.54;95505.84;5017130;28;20033;-54
2022/04/18 06:34:28;;;;;;;8.50;2.58;;;14.30;41.10;;;9.09;46.22;95502.22;5031913;28;20034;-54
2022/04/18 06:36:54;;;;;;;3.30;2.00;;;14.60;41.40;;;9.20;46.67;95503.91;5031790;28;20074;-54
2022/04/18 06:39:22;;;;;;;3.10;2.25;;;14.80;40.30;;;9.36;45.45;95504.78;5031594;28;20399;-54
2022/04/18 06:41:50;;;;;;;5.47;2.03;;;15.00;39.70;;;9.48;44.64;95494.75;5029936;28;20029;-54
2022/04/18 06:44:19;;;;;;;3.13;1.77;;;15.20;39.20;;;9.58;44.54;95499.28;5030507;28;20033;-57
2022/04/18 06:46:48;;;;;;;2.58;1.90;;;15.50;38.60;;;9.70;44.34;95500.69;5030364;28;20021;-56
2022/04/18 06:49:13;;;;;;;3.45;2.10;;;15.70;38.20;;;9.75;43.68;95501.78;5014264;28;20035;-54
2022/04/18 06:51:42;;;;;;;2.78;2.03;;;15.80;37.70;;;9.76;44.29;95506.81;5008369;28;20033;-56
2022/04/18 06:54:08;;;;;;;2.83;2.10;;;16.00;37.20;;;9.85;43.96;95502.59;5023043;28;20499;-54
2022/04/18 06:59:24;;;;;;;3.15;1.85;;;16.40;36.80;;;10.13;42.92;95524.50;5010183;28;20056;-57
2022/04/18 07:01:54;;;;;;;3.00;2.33;;;16.60;35.90;;;10.15;42.97;95523.19;4992748;28;20148;-55
2022/04/18 07:04:26;;;;;;;4.82;1.90;;;16.70;35.30;;;9.91;43.12;95519.38;5007566;28;20888;-55
2022/04/18 07:06:51;;;;;;;2.58;2.00;;;16.80;34.50;;;9.76;43.28;95521.97;5013604;28;20030;-57
2022/04/18 07:09:20;;;;;;;3.08;2.03;;;16.90;33.90;;;9.72;42.87;95532.34;5008841;28;20374;-57
2022/04/18 07:11:46;;;;;;;14.48;6.72;;;17.00;33.40;;;9.60;43.31;95534.41;5044701;22;20046;-54
2022/04/18 07:14:13;;;;;;;7.25;4.93;;;17.00;33.00;;;9.62;42.85;95527.78;5027019;28;20075;-53
2022/04/18 07:16:43;;;;;;;2.47;2.25;;;17.10;32.70;;;9.76;43.25;95530.75;5033734;28;20044;-57
2022/04/18 07:19:09;;;;;;;2.72;1.98;;;17.10;32.60;;;9.89;43.18;95518.84;5022347;28;20542;-55
2022/04/18 07:21:35;;;;;;;2.75;2.05;;;17.20;32.60;;;10.26;42.87;95533.84;5032865;28;20029;-55
2022/04/18 07:24:03;;;;;;;4.35;2.35;;;17.30;32.60;;;10.45;42.85;95528.84;5048541;28;20029;-55
2022/04/18 07:26:28;;;;;;;2.40;2.03;;;17.40;32.50;;;10.66;42.41;95519.81;5032924;28;20108;-55
2022/04/18 07:28:54;;;;;;;3.80;2.40;;;17.60;32.30;;;11.02;42.93;95515.25;5033296;28;20172;-54
2022/04/18 07:31:20;;;;;;;5.25;2.28;;;17.70;32.40;;;11.12;41.55;95511.75;5034121;28;20373;-58
2022/04/18 07:33:46;;;;;;;2.78;2.03;;;17.90;32.10;;;11.50;41.20;95521.03;5030549;28;20137;-51
2022/04/18 07:36:19;;;;;;;2.25;1.95;;;18.20;32.10;;;11.63;39.47;95516.19;5032087;28;20037;-52
2022/04/18 07:38:53;;;;;;;2.95;2.13;;;18.40;31.60;;;11.90;38.80;95518.50;5012393;28;20391;-57
2022/04/18 07:41:25;;;;;;;2.63;2.20;;;18.60;31.20;;;12.02;39.28;95510.97;5031948;28;20029;-54
2022/04/18 07:43:52;;;;;;;3.77;2.43;;;18.90;30.80;;;12.34;38.41;95507.84;5038982;28;20515;-55
2022/04/18 07:46:21;;;;;;;6.30;2.33;;;19.00;30.60;;;12.00;38.44;95521.94;5032512;28;20057;-52
2022/04/18 07:48:51;;;;;;;2.25;2.03;;;19.30;29.90;;;12.28;38.68;95522.28;5033441;28;20029;-56
2022/04/18 07:51:35;;;;;;;3.88;2.47;;;19.40;29.70;;;12.57;37.36;95517.06;5032192;28;20040;-53
2022/04/18 07:54:09;;;;;;;3.35;2.15;;;19.60;29.70;;;12.78;38.37;95517.66;5031996;28;20018;-57
2022/04/18 07:56:44;;;;;;;3.30;2.55;;;19.80;29.60;;;12.73;37.71;95513.19;5004323;28;20028;-55
2022/04/18 07:59:18;;;;;;;3.15;2.28;;;20.00;29.20;;;13.14;37.54;95510.16;5029167;28;20037;-56
2022/04/18 08:01:47;;;;;;;3.38;2.42;;;20.20;29.00;;;13.33;36.68;95502.22;5050365;28;20442;-56
2022/04/18 08:04:13;;;;;;;3.75;2.63;;;20.40;28.90;;;13.58;36.64;95503.03;5019894;28;20029;-56
2022/04/18 08:06:39;;;;;;;2.58;2.08;;;20.60;28.90;;;13.97;35.79;95515.41;5015853;28;20030;-56
2022/04/18 08:09:10;;;;;;;2.78;2.20;;;20.90;28.80;;;14.01;36.42;95505.75;5015575;28;20093;-55
2022/04/18 08:11:36;;;;;;;3.67;2.17;;;21.10;28.30;;;14.02;35.83;95510.81;5022246;28;20073;-54
2022/04/18 08:14:02;;;;;;;2.22;2.03;;;21.30;28.10;;;13.59;36.55;95510.78;5033810;28;20447;-54
2022/04/18 08:16:28;;;;;;;3.22;2.60;;;21.40;27.60;;;13.98;36.31;95515.16;5050613;28;20057;-58
2022/04/18 08:19:00;;;;;;;2.67;2.17;;;21.50;27.50;;;13.87;35.93;95509.09;5033849;28;20026;-56
2022/04/18 08:21:29;;;;;;;3.43;2.50;;;21.60;27.10;;;14.06;35.39;95514.50;5035239;28;20112;-53
2022/04/18 08:23:54;;;;;;;3.67;2.47;;;21.70;27.10;;;13.81;35.60;95502.22;5031152;28;20385;-58
2022/04/18 08:26:26;;;;;;;4.00;2.40;;;21.90;26.80;;;14.18;35.99;95505.25;5034620;28;20227;-56
2022/04/18 08:28:58;;;;;;;2.55;2.25;;;21.90;26.80;;;14.54;35.91;95509.03;5032653;28;20034;-55
2022/04/18 08:31:24;;;;;;;3.83;2.38;;;22.00;26.80;;;15.12;34.79;95501.69;5033025;28;20388;-57
2022/04/18 08:33:49;;;;;;;2.90;2.28;;;22.20;26.80;;;15.45;33.45;95502.44;5034191;28;20029;-57
2022/04/18 08:36:18;;;;;;;2.78;2.10;;;22.50;26.80;;;15.84;32.84;95507.34;5032368;28;20037;-57
2022/04/18 08:38:44;;;;;;;4.10;2.50;;;22.80;26.50;;;15.82;32.11;95506.84;5033065;28;20033;-56
2022/04/18 08:41:13;;;;;;;3.63;2.60;;;23.00;26.10;;;15.93;32.34;95504.75;5046061;28;20144;-58
2022/04/18 08:43:41;;;;;;;3.38;2.47;;;23.20;25.90;;;15.70;33.12;95501.97;5030136;28;20065;-59
2022/04/18 08:46:08;;;;;;;2.40;2.20;;;23.50;25.60;;;16.02;32.45;95502.16;5032661;28;20029;-56
2022/04/18 08:54:07;;;;;;;2.70;2.50;;;24.10;25.30;;;16.33;32.78;95494.25;5032187;28;20067;-52
2022/04/18 08:56:34;;;;;;;4.25;2.72;;;24.20;24.90;;;16.77;31.67;95500.78;5030299;28;20030;-55
2022/04/18 08:58:59;;;;;;;2.63;2.42;;;24.40;24.80;;;17.14;30.40;95490.72;5031836;28;20064;-56
2022/04/18 09:01:50;;;;;;;3.13;2.65;;;24.50;24.60;;;16.95;31.48;95485.53;5032990;28;20072;-56
2022/04/18 09:04:23;;;;;;;2.90;2.10;;;24.80;24.20;;;17.39;30.79;95487.34;5027512;28;20025;-55
2022/04/18 09:06:49;;;;;;;2.40;2.10;;;25.00;24.30;;;17.27;29.75;95490.66;5025035;28;20034;-57
2022/04/18 09:09:14;;;;;;;3.00;2.50;;;25.00;23.90;;;17.35;30.43;95489.09;5031350;28;20037;-55
2022/04/18 09:11:41;;;;;;;3.60;2.40;;;25.10;23.80;;;17.33;30.25;95484.03;5030252;28;20527;-57
2022/04/18 09:14:12;;;;;;;2.65;2.45;;;25.20;23.80;;;17.00;29.61;95478.13;5030275;28;20503;-57
2022/04/18 09:16:41;;;;;;;3.88;3.17;;;25.30;22.90;;;16.63;31.53;95477.38;5032054;28;20613;-57
2022/04/18 09:19:13;;;;;;;2.83;2.50;;;25.30;22.80;;;16.90;30.35;95478.41;5030136;28;20022;-57
2022/04/18 09:21:42;;;;;;;2.33;2.13;;;25.30;22.70;;;16.64;31.38;95481.69;5013956;28;20053;-58
2022/04/18 09:24:43;;;;;;;2.92;2.50;;;25.20;22.50;;;16.54;31.40;95476.53;5027742;28;20071;-59
2022/04/18 09:27:31;;;;;;;2.90;2.60;;;25.20;22.30;;;17.03;30.94;95471.34;5030295;28;20102;-55
2022/04/18 09:30:11;;;;;;;3.30;2.40;;;25.20;22.70;;;17.35;30.27;95476.41;5014250;28;20149;-52
2022/04/18 09:32:40;;;;;;;2.90;2.58;;;25.20;22.70;;;17.63;31.15;95472.75;5012426;28;20026;-53
2022/04/18 09:35:07;;;;;;;3.55;2.60;;;25.30;22.90;;;17.68;30.23;95476.09;5015801;28;20032;-56
2022/04/18 09:37:39;;;;;;;2.95;2.53;;;25.40;22.90;;;17.63;30.96;95470.84;5025244;28;20092;-55
2022/04/18 09:40:06;;;;;;;6.50;2.90;;;25.50;22.70;;;17.59;30.19;95472.56;5033935;28;20014;-50
2022/04/18 09:42:35;;;;;;;2.78;2.40;;;25.60;23.20;;;17.22;29.75;95469.25;5014141;28;20739;-55
2022/04/18 09:45:09;;;;;;;2.88;2.67;;;25.60;22.20;;;17.63;30.85;95470.84;5028658;28;20404;-55
2022/04/18 09:47:35;;;;;;;5.57;2.80;;;25.70;22.40;;;17.89;30.40;95470.94;5032217;28;20488;-56
2022/04/18 09:53:17;;;;;;;2.78;2.58;;;25.90;22.40;;;18.24;29.70;95471.00;5033201;28;20446;-56
2022/04/18 09:55:55;;;;;;;2.80;2.50;;;26.00;22.30;;;18.15;29.71;95467.50;5033603;28;20383;-55
2022/04/18 09:58:22;;;;;;;3.33;3.03;;;26.20;22.10;;;18.03;29.84;95463.53;5032391;28;20042;-54
2022/04/18 10:00:51;;;;;;;2.90;2.65;;;26.20;22.10;;;18.12;29.25;95462.75;5032090;28;20611;-55
2022/04/18 10:03:18;;;;;;;3.35;3.05;;;26.20;21.90;;;18.16;30.13;95463.69;5032165;28;20041;-55
2022/04/18 10:05:47;;;;;;;2.97;2.67;;;26.30;22.00;;;18.34;29.75;95456.44;5029604;28;20452;-55
2022/04/18 10:08:14;;;;;;;3.10;2.80;;;26.40;22.00;;;18.41;29.06;95456.75;5033091;28;20116;-55
2022/04/18 10:10:40;;;;;;;3.13;2.83;;;26.40;21.80;;;18.56;28.97;95444.69;5031380;28;20037;-53
2022/04/18 10:13:10;;;;;;;4.60;2.92;;;26.50;21.80;;;18.79;29.75;95456.91;5030509;28;20131;-53
2022/04/18 10:15:39;;;;;;;3.22;2.70;;;26.60;21.80;;;18.90;28.83;95457.38;5028654;28;20505;-54
2022/04/18 10:18:10;;;;;;;4.80;2.85;;;26.70;21.80;;;19.03;28.55;95444.81;5031747;28;20540;-54
2022/04/18 10:21:13;;;;;;;3.22;2.80;;;26.90;21.80;;;18.66;28.24;95447.84;5032904;28;20064;-56
2022/04/18 10:24:23;;;;;;;4.28;2.40;;;26.90;21.30;;;18.79;28.38;95451.50;5032915;28;20459;-51
2022/04/18 10:27:20;;;;;;;3.05;2.40;;;26.90;21.20;;;18.08;29.01;95449.09;5031945;28;20025;-56
2022/04/18 10:29:51;;;;;;;3.67;2.67;;;27.00;21.10;;;18.43;29.30;95441.03;5022774;28;20172;-54
2022/04/18 10:32:22;;;;;;;3.30;3.00;;;26.90;21.00;;;18.67;29.31;95435.13;5026806;28;20494;-56
2022/04/18 10:34:56;;;;;;;2.55;2.33;;;27.00;21.20;;;19.09;29.61;95424.63;5031908;28;20059;-55
2022/04/18 10:37:24;;;;;;;3.08;2.63;;;27.00;21.40;;;18.73;28.67;95429.28;5027645;28;20022;-56
2022/04/18 10:40:18;;;;;;;2.70;2.50;;;27.20;21.00;;;18.66;28.80;95434.34;5024530;28;20373;-55
2022/04/18 10:42:55;;;;;;;2.85;2.65;;;27.20;21.10;;;18.48;29.69;95428.16;5030046;28;20404;-56
2022/04/18 10:45:24;;;;;;;2.95;2.47;;;27.20;20.70;;;18.55;29.32;95425.03;5027573;28;20132;-56
2022/04/18 10:48:09;;;;;;;3.97;2.80;;;27.20;20.80;;;17.88;29.65;95430.84;5029582;28;20021;-57
2022/04/18 10:50:54;;;;;;;4.00;2.40;;;27.20;20.80;;;18.11;29.61;95426.91;5031761;28;20392;-57
2022/04/18 10:53:25;;;;;;;3.13;2.90;;;27.00;20.70;;;18.08;29.38;95419.44;5028988;28;20049;-53
2022/04/18 10:55:51;;;;;;;4.07;2.70;;;27.10;20.60;;;18.24;30.01;95425.19;5021283;28;20168;-53
2022/04/18 10:58:40;;;;;;;3.15;2.85;;;27.00;20.80;;;17.85;29.59;95418.00;5027356;28;20535;-54